Time;durP1;ratioP1;P1;durP2;ratioP2;P2;SDS_P1;SDS_P2;PMS_P1;PMS_P2;Temp;Humidity;BMP_temperature;BMP_pressure;BME280_temperature;BME280_humidity;BME280_pressure;Samples;Min_cycle;Max_cycle;Signal;HPM_P1;HPM_P2
2024/01/23 00:00:38;;;;;;;;;;;;;;;19.52;41.19;100652.50;2084811;28;5958;-61
2024/01/23 00:01:43;;;;;;;;;;;;;;;19.51;41.18;100659.63;2081886;28;2263;-61
2024/01/23 00:02:45;;;;;;;;;;;;;;;19.50;41.20;100664.63;2082959;28;2145;-60
2024/01/23 00:03:46;;;;;;;;;;;;;;;19.50;41.15;100652.41;2086978;28;1669;-61
2024/01/23 00:04:48;;;;;;;;;;;;;;;19.50;41.21;100658.88;2081281;28;1894;-61
2024/01/23 00:05:49;;;;;;;;;;;;;;;19.49;41.14;100657.38;2082957;28;2205;-61
2024/01/23 00:06:51;;;;;;;;;;;;;;;19.49;41.20;100666.00;2087079;28;1626;-61
2024/01/23 00:07:52;;;;;;;;;;;;;;;19.49;41.12;100660.25;2081926;28;2185;-61
2024/01/23 00:08:53;;;;;;;;;;;;;;;19.50;41.09;100667.50;2084903;28;2241;-61
2024/01/23 00:09:55;;;;;;;;;;;;;;;19.50;41.16;100667.50;2086577;28;1990;-61
2024/01/23 00:10:56;;;;;;;;;;;;;;;19.50;41.15;100666.78;2088319;28;1750;-61
2024/01/23 00:12:00;;;;;;;;;;;;;;;19.50;41.13;100669.66;2084184;28;2051;-61
2024/01/23 00:13:01;;;;;;;;;;;;;;;19.49;41.08;100673.88;2083687;28;2407;-61
2024/01/23 00:14:03;;;;;;;;;;;;;;;19.48;41.08;100667.41;2086325;28;1955;-61
2024/01/23 00:15:04;;;;;;;;;;;;;;;19.49;41.17;100665.28;2086220;28;1717;-60
2024/01/23 00:16:05;;;;;;;;;;;;;;;19.47;41.07;100660.19;2086485;28;2282;-61
2024/01/23 00:17:07;;;;;;;;;;;;;;;19.49;41.08;100668.88;2085821;28;2119;-61
2024/01/23 00:18:08;;;;;;;;;;;;;;;19.49;41.10;100668.16;2083743;28;2109;-61
2024/01/23 00:19:10;;;;;;;;;;;;;;;19.48;41.07;100672.41;2084956;28;2259;-61
2024/01/23 00:20:12;;;;;;;;;;;;;;;19.48;41.04;100672.41;2082702;28;2065;-61
2024/01/23 00:21:13;;;;;;;;;;;;;;;19.48;41.25;100681.03;2088033;28;1872;-61
2024/01/23 00:22:14;;;;;;;;;;;;;;;19.47;41.13;100677.44;2084617;28;1891;-61
2024/01/23 00:23:16;;;;;;;;;;;;;;;19.48;40.99;100683.91;2084584;28;2089;-61
2024/01/23 00:24:17;;;;;;;;;;;;;;;19.46;41.02;100684.53;2086162;28;2162;-61
2024/01/23 00:25:19;;;;;;;;;;;;;;;19.47;41.05;100694.66;2085419;28;2092;-61
2024/01/23 00:26:20;;;;;;;;;;;;;;;19.46;41.10;100687.41;2085723;28;1922;-61
2024/01/23 00:27:21;;;;;;;;;;;;;;;19.46;41.07;100696.03;2084337;28;2057;-61
2024/01/23 00:28:23;;;;;;;;;;;;;;;19.45;41.05;100715.41;2086341;28;1582;-61
2024/01/23 00:29:24;;;;;;;;;;;;;;;19.45;41.06;100694.56;2082762;28;2094;-61
2024/01/23 00:30:26;;;;;;;;;;;;;;;19.43;41.10;100697.31;2084600;28;6140;-61
2024/01/23 00:31:27;;;;;;;;;;;;;;;19.43;41.14;100700.19;2083159;28;1620;-61
2024/01/23 00:32:30;;;;;;;;;;;;;;;19.42;41.01;100707.31;2086747;28;1558;-61
2024/01/23 00:33:32;;;;;;;;;;;;;;;19.43;41.09;100705.94;2085158;28;2097;-61
2024/01/23 00:34:33;;;;;;;;;;;;;;;19.42;40.96;100710.94;2082589;28;2173;-61
2024/01/23 00:35:35;;;;;;;;;;;;;;;19.42;40.93;100710.94;2082806;28;2151;-61
2024/01/23 00:36:36;;;;;;;;;;;;;;;19.43;40.89;100708.81;2083143;28;2153;-61
2024/01/23 00:37:38;;;;;;;;;;;;;;;19.43;40.90;100717.44;2083772;28;2416;-61
2024/01/23 00:38:39;;;;;;;;;;;;;;;19.44;40.90;100710.28;2084844;28;2109;-61
2024/01/23 00:39:41;;;;;;;;;;;;;;;19.43;40.92;100712.41;2086402;28;1884;-61
2024/01/23 00:40:42;;;;;;;;;;;;;;;19.43;40.82;100717.44;2084088;28;1549;-61
2024/01/23 00:41:43;;;;;;;;;;;;;;;19.42;40.92;100705.22;2085833;28;2200;-61
2024/01/23 00:42:45;;;;;;;;;;;;;;;19.42;40.95;100710.19;2083561;28;1590;-61
2024/01/23 00:43:47;;;;;;;;;;;;;;;19.41;40.84;100700.09;2087888;28;1608;-61
2024/01/23 00:44:48;;;;;;;;;;;;;;;19.42;40.91;100695.81;2082689;28;1911;-61
2024/01/23 00:45:50;;;;;;;;;;;;;;;19.41;40.88;100708.72;2083802;28;2163;-61
2024/01/23 00:46:52;;;;;;;;;;;;;;;19.41;40.85;100708.72;2086680;28;2172;-61
2024/01/23 00:47:53;;;;;;;;;;;;;;;19.41;41.01;100711.59;2084597;28;2107;-61
2024/01/23 00:48:55;;;;;;;;;;;;;;;19.40;40.88;100716.59;2084080;28;2117;-61
2024/01/23 00:49:56;;;;;;;;;;;;;;;19.40;40.88;100715.81;2088369;28;2535;-61
2024/01/23 00:50:58;;;;;;;;;;;;;;;19.39;40.84;100708.63;2085551;28;1888;-61
2024/01/23 00:51:59;;;;;;;;;;;;;;;19.40;40.97;100712.97;2085420;28;2155;-61
2024/01/23 00:53:00;;;;;;;;;;;;;;;19.40;40.90;100712.97;2083356;28;2106;-60
2024/01/23 00:54:02;;;;;;;;;;;;;;;19.40;40.84;100725.22;2081241;28;2118;-61
2024/01/23 00:55:04;;;;;;;;;;;;;;;19.40;40.94;100725.22;2086402;28;2174;-60
2024/01/23 00:56:06;;;;;;;;;;;;;;;19.39;41.01;100723.72;2087053;28;1654;-60
2024/01/23 00:57:07;;;;;;;;;;;;;;;19.40;40.94;100707.22;2081142;28;2126;-61
2024/01/23 00:58:11;;;;;;;;;;;;;;;19.39;40.92;100705.75;2086135;28;2073;-61
2024/01/23 00:59:12;;;;;;;;;;;;;;;19.38;40.96;100707.16;2084696;28;2322;-61
2024/01/23 01:00:14;;;;;;;;;;;;;;;19.38;40.95;100705.00;2084255;28;6076;-61
2024/01/23 01:01:15;;;;;;;;;;;;;;;19.37;40.89;100697.75;2080469;28;2058;-60
2024/01/23 01:02:17;;;;;;;;;;;;;;;19.39;40.99;100702.88;2084084;28;2050;-60
2024/01/23 01:03:18;;;;;;;;;;;;;;;19.39;40.84;100714.34;2086379;28;1784;-61
2024/01/23 01:04:20;;;;;;;;;;;;;;;19.39;40.92;100711.47;2086764;28;1840;-61
2024/01/23 01:05:21;;;;;;;;;;;;;;;19.39;40.96;100711.47;2087057;28;2172;-61
2024/01/23 01:06:22;;;;;;;;;;;;;;;19.37;40.99;100708.50;2085628;28;1760;-61
2024/01/23 01:07:24;;;;;;;;;;;;;;;19.38;40.99;100715.75;2084174;28;2123;-61
2024/01/23 01:08:25;;;;;;;;;;;;;;;19.36;41.00;100718.53;2088264;28;1974;-61
2024/01/23 01:09:27;;;;;;;;;;;;;;;19.36;40.97;100712.78;2082100;28;1566;-61
2024/01/23 01:10:29;;;;;;;;;;;;;;;19.35;41.04;100717.75;2083417;28;1764;-61
2024/01/23 01:11:30;;;;;;;;;;;;;;;19.37;40.96;100714.25;2087500;28;2104;-61
2024/01/23 01:12:33;;;;;;;;;;;;;;;19.35;40.94;100723.50;2086849;28;1935;-61
2024/01/23 01:13:35;;;;;;;;;;;;;;;19.37;41.03;100708.50;2083772;28;1617;-61
2024/01/23 01:14:37;;;;;;;;;;;;;;;19.36;40.95;100707.78;2087679;28;2154;-61
2024/01/23 01:15:38;;;;;;;;;;;;;;;19.39;40.96;100720.09;2082199;28;2095;-61
2024/01/23 01:16:40;;;;;;;;;;;;;;;19.39;40.90;100725.84;2085102;28;2133;-61
2024/01/23 01:17:41;;;;;;;;;;;;;;;19.39;40.89;100717.97;2084637;28;2138;-61
2024/01/23 01:18:43;;;;;;;;;;;;;;;19.41;40.91;100708.72;2083984;28;2120;-61
2024/01/23 01:19:44;;;;;;;;;;;;;;;19.41;40.90;100709.44;2080899;28;2247;-61
2024/01/23 01:20:48;;;;;;;;;;;;;;;19.41;40.95;100703.72;2086520;28;2204;-61
2024/01/23 01:21:49;;;;;;;;;;;;;;;19.43;41.01;100717.44;2082266;28;2116;-61
2024/01/23 01:22:51;;;;;;;;;;;;;;;19.42;40.90;100710.19;2082351;28;2180;-61
2024/01/23 01:23:52;;;;;;;;;;;;;;;19.42;40.96;100713.81;2086140;28;1717;-61
2024/01/23 01:24:54;;;;;;;;;;;;;;;19.44;40.90;100707.41;2086699;28;1979;-61
2024/01/23 01:25:55;;;;;;;;;;;;;;;19.44;40.92;100707.41;2086367;28;2143;-61
2024/01/23 01:26:57;;;;;;;;;;;;;;;19.45;40.83;100709.66;2084895;28;2137;-61
2024/01/23 01:27:59;;;;;;;;;;;;;;;19.46;40.95;100710.38;2086840;28;1871;-61
2024/01/23 01:29:01;;;;;;;;;;;;;;;19.46;40.91;100714.00;2085319;28;1615;-61
2024/01/23 01:30:05;;;;;;;;;;;;;;;19.48;40.84;100709.75;2082130;28;1565;-61
2024/01/23 01:31:07;;;;;;;;;;;;;;;19.48;40.83;100713.34;2082708;28;6270;-61
2024/01/23 01:32:08;;;;;;;;;;;;;;;19.49;40.85;100708.34;2084953;28;1859;-61
2024/01/23 01:33:10;;;;;;;;;;;;;;;19.49;40.85;100702.59;2084728;28;1942;-61
2024/01/23 01:34:11;;;;;;;;;;;;;;;19.48;41.04;100706.88;2088281;28;2161;-61
2024/01/23 01:35:13;;;;;;;;;;;;;;;19.48;41.01;100710.50;2083661;28;2119;-61
2024/01/23 01:36:15;;;;;;;;;;;;;;;19.49;40.91;100714.81;2085299;28;2008;-61
2024/01/23 01:37:16;;;;;;;;;;;;;;;19.49;41.00;100717.69;2084782;28;2142;-61
2024/01/23 01:38:18;;;;;;;;;;;;;;;19.47;41.00;100711.88;2084868;28;1860;-61
2024/01/23 01:39:20;;;;;;;;;;;;;;;19.48;40.95;100721.97;2084755;28;1646;-61
2024/01/23 01:40:21;;;;;;;;;;;;;;;19.48;40.98;100716.22;2085688;28;2063;-61
2024/01/23 01:41:22;;;;;;;;;;;;;;;19.48;41.06;100718.38;2086705;28;1645;-61
2024/01/23 01:42:24;;;;;;;;;;;;;;;19.48;40.99;100726.97;2086565;28;1698;-61
2024/01/23 01:43:26;;;;;;;;;;;;;;;19.46;41.07;100733.34;2085076;28;1761;-61
2024/01/23 01:44:29;;;;;;;;;;;;;;;19.45;41.10;100724.00;2085897;28;2284;-61
2024/01/23 01:45:30;;;;;;;;;;;;;;;19.46;41.18;100736.97;2085227;28;2204;-61
2024/01/23 01:46:32;;;;;;;;;;;;;;;19.47;41.14;100729.13;2083136;28;2114;-61
2024/01/23 01:47:33;;;;;;;;;;;;;;;19.48;41.16;100729.84;2086944;28;2097;-61
2024/01/23 01:48:35;;;;;;;;;;;;;;;19.47;41.16;100734.84;2084878;28;2109;-61
2024/01/23 01:49:36;;;;;;;;;;;;;;;19.46;41.24;100734.09;2081649;28;2145;-61
2024/01/23 01:50:38;;;;;;;;;;;;;;;19.46;41.08;100727.63;2085031;28;2032;-61
2024/01/23 01:51:39;;;;;;;;;;;;;;;19.46;41.15;100724.75;2083196;28;2114;-61
2024/01/23 01:52:43;;;;;;;;;;;;;;;19.45;41.12;100731.88;2082089;28;2163;-61
2024/01/23 01:53:45;;;;;;;;;;;;;;;19.46;41.07;100733.34;2083239;28;1930;-61
2024/01/23 01:54:46;;;;;;;;;;;;;;;19.45;41.19;100724.00;2084193;28;2167;-61
2024/01/23 01:55:47;;;;;;;;;;;;;;;19.45;41.06;100720.41;2078666;28;1902;-61
2024/01/23 01:56:49;;;;;;;;;;;;;;;19.45;41.22;100723.28;2082425;28;2082;-61
2024/01/23 01:57:51;;;;;;;;;;;;;;;19.45;41.16;100734.75;2085143;28;2402;-61
2024/01/23 01:58:52;;;;;;;;;;;;;;;19.45;41.16;100731.88;2092792;28;2053;-61
2024/01/23 01:59:54;;;;;;;;;;;;;;;19.44;41.15;100736.13;2085220;28;2060;-61
2024/01/23 02:00:55;;;;;;;;;;;;;;;19.44;41.16;100731.13;2085179;28;5923;-61
2024/01/23 02:01:57;;;;;;;;;;;;;;;19.43;41.31;100728.91;2087155;28;1655;-61
2024/01/23 02:02:58;;;;;;;;;;;;;;;19.44;41.18;100724.66;2083097;28;1911;-60
2024/01/23 02:03:59;;;;;;;;;;;;;;;19.43;41.18;100729.66;2083068;28;1667;-61
2024/01/23 02:05:01;;;;;;;;;;;;;;;19.42;41.28;100722.44;2086149;28;1576;-60
2024/01/23 02:06:03;;;;;;;;;;;;;;;19.43;41.22;100731.78;2082265;28;1917;-61
2024/01/23 02:07:04;;;;;;;;;;;;;;;19.43;41.26;100717.44;2084055;28;2200;-61
2024/01/23 02:08:06;;;;;;;;;;;;;;;19.41;41.26;100729.56;2084653;28;2091;-61
2024/01/23 02:09:08;;;;;;;;;;;;;;;19.40;41.41;100730.94;2084227;28;2125;-61
2024/01/23 02:10:10;;;;;;;;;;;;;;;19.40;41.19;100733.06;2083430;28;1858;-61
2024/01/23 02:11:12;;;;;;;;;;;;;;;19.40;41.26;100735.94;2084334;28;1796;-61
2024/01/23 02:12:14;;;;;;;;;;;;;;;19.40;41.21;100730.94;2085455;28;1883;-61
2024/01/23 02:13:15;;;;;;;;;;;;;;;19.39;41.34;100732.31;2084792;28;2201;-61
2024/01/23 02:14:16;;;;;;;;;;;;;;;19.41;41.26;100725.94;2082496;28;2242;-60
2024/01/23 02:15:18;;;;;;;;;;;;;;;19.39;41.30;100729.44;2082726;28;2127;-61
2024/01/23 02:16:21;;;;;;;;;;;;;;;19.39;41.27;100728.72;2082777;28;1842;-61
2024/01/23 02:17:23;;;;;;;;;;;;;;;19.39;41.35;100729.44;2081831;28;1746;-61
2024/01/23 02:18:24;;;;;;;;;;;;;;;19.40;41.24;100730.19;2085348;28;2138;-61
2024/01/23 02:19:26;;;;;;;;;;;;;;;19.40;41.31;100718.69;2090241;28;1879;-61
2024/01/23 02:20:28;;;;;;;;;;;;;;;19.40;41.42;100724.44;2084295;28;2201;-61
2024/01/23 02:21:29;;;;;;;;;;;;;;;19.38;41.33;100725.09;2083172;28;2075;-61
2024/01/23 02:22:31;;;;;;;;;;;;;;;19.38;41.32;100730.13;2082367;28;2289;-61
2024/01/23 02:23:32;;;;;;;;;;;;;;;19.37;41.36;100726.47;2082776;28;2271;-61
2024/01/23 02:24:33;;;;;;;;;;;;;;;19.37;41.25;100720.00;2087437;28;1793;-61
2024/01/23 02:25:35;;;;;;;;;;;;;;;19.37;41.24;100720.72;2081169;28;2122;-61
2024/01/23 02:26:36;;;;;;;;;;;;;;;19.37;41.25;100725.75;2081392;28;2103;-61
2024/01/23 02:27:38;;;;;;;;;;;;;;;19.36;41.34;100713.53;2081413;28;2043;-61
2024/01/23 02:28:39;;;;;;;;;;;;;;;19.36;41.33;100724.28;2082199;28;2107;-61
2024/01/23 02:29:41;;;;;;;;;;;;;;;19.37;41.28;100725.75;2086853;28;1593;-61
2024/01/23 02:30:42;;;;;;;;;;;;;;;19.36;41.30;100718.53;2079042;28;6176;-61
2024/01/23 02:31:44;;;;;;;;;;;;;;;19.35;41.36;100723.50;2084065;28;1618;-61
2024/01/23 02:32:45;;;;;;;;;;;;;;;19.35;41.34;100722.78;2084472;28;2192;-61
2024/01/23 02:33:47;;;;;;;;;;;;;;;19.35;41.28;100734.25;2081933;28;1653;-61
2024/01/23 02:34:48;;;;;;;;;;;;;;;19.34;41.29;100733.53;2084324;28;2075;-61
2024/01/23 02:35:50;;;;;;;;;;;;;;;19.34;41.37;100738.53;2083017;28;2043;-61
2024/01/23 02:36:51;;;;;;;;;;;;;;;19.33;41.33;100734.88;2083702;28;2130;-61
2024/01/23 02:37:54;;;;;;;;;;;;;;;19.33;41.30;100728.41;2083379;28;2284;-61
2024/01/23 02:38:56;;;;;;;;;;;;;;;19.33;41.28;100725.53;2080741;28;2115;-62
2024/01/23 02:39:57;;;;;;;;;;;;;;;19.33;41.37;100725.53;2082413;28;2108;-61
2024/01/23 02:40:59;;;;;;;;;;;;;;;19.32;41.29;100730.53;2084421;28;2118;-61
2024/01/23 02:42:01;;;;;;;;;;;;;;;19.32;41.28;100726.94;2083865;28;2158;-61
2024/01/23 02:43:02;;;;;;;;;;;;;;;19.32;41.30;100729.81;2084302;28;2162;-61
2024/01/23 02:44:04;;;;;;;;;;;;;;;19.32;41.23;100726.94;2080147;28;2130;-61
2024/01/23 02:45:05;;;;;;;;;;;;;;;19.33;41.40;100725.53;2083276;28;2226;-61
2024/01/23 02:46:07;;;;;;;;;;;;;;;19.31;41.24;100723.34;2085190;28;2235;-61
2024/01/23 02:47:08;;;;;;;;;;;;;;;19.33;41.19;100719.81;2085119;28;2188;-61
2024/01/23 02:48:11;;;;;;;;;;;;;;;19.31;41.22;100716.81;2084086;28;2139;-59
2024/01/23 02:49:12;;;;;;;;;;;;;;;19.32;41.13;100729.81;2082976;28;1807;-61
2024/01/23 02:50:14;;;;;;;;;;;;;;;19.32;41.28;100724.06;2081631;28;2075;-61
2024/01/23 02:51:19;;;;;;;;;;;;;;;19.31;41.29;100728.31;2084494;28;2413;-61
2024/01/23 02:52:20;;;;;;;;;;;;;;;19.31;41.30;100723.34;2083622;28;2368;-61
2024/01/23 02:53:22;;;;;;;;;;;;;;;19.30;41.22;100721.09;2083828;28;2128;-61
2024/01/23 02:54:23;;;;;;;;;;;;;;;19.29;41.21;100731.06;2081358;28;2106;-61
2024/01/23 02:55:25;;;;;;;;;;;;;;;19.30;41.24;100726.84;2081792;28;2092;-60
2024/01/23 02:56:26;;;;;;;;;;;;;;;19.29;41.11;100728.97;2083681;28;2168;-61
2024/01/23 02:57:28;;;;;;;;;;;;;;;19.30;41.14;100732.56;2084999;28;2237;-61
2024/01/23 02:58:29;;;;;;;;;;;;;;;19.31;41.14;100739.78;2082520;28;2224;-61
2024/01/23 02:59:30;;;;;;;;;;;;;;;19.32;41.16;100735.56;2083288;28;2074;-61
2024/01/23 03:00:35;;;;;;;;;;;;;;;19.31;41.09;100748.41;2083813;28;6071;-61
2024/01/23 03:01:36;;;;;;;;;;;;;;;19.32;41.11;100750.66;2084173;28;2185;-61
2024/01/23 03:02:38;;;;;;;;;;;;;;;19.34;41.05;100755.75;2084229;28;2039;-61
2024/01/23 03:03:39;;;;;;;;;;;;;;;19.34;40.95;100753.63;2086926;28;1591;-61
2024/01/23 03:04:41;;;;;;;;;;;;;;;19.34;41.15;100764.38;2084948;28;1929;-61
2024/01/23 03:05:42;;;;;;;;;;;;;;;19.34;41.10;100738.53;2082749;28;2136;-61
2024/01/23 03:06:44;;;;;;;;;;;;;;;19.35;41.11;100742.88;2081906;28;2058;-61
2024/01/23 03:07:45;;;;;;;;;;;;;;;19.36;41.01;100752.97;2081928;28;2164;-61
2024/01/23 03:08:47;;;;;;;;;;;;;;;19.35;41.02;100745.75;2083832;28;2094;-61
2024/01/23 03:09:48;;;;;;;;;;;;;;;19.36;41.05;100741.50;2082180;28;2156;-61
2024/01/23 03:10:50;;;;;;;;;;;;;;;19.37;41.01;100754.47;2082455;28;2097;-61
2024/01/23 03:11:51;;;;;;;;;;;;;;;19.37;41.05;100745.84;2084869;28;2129;-61
2024/01/23 03:12:53;;;;;;;;;;;;;;;19.39;41.09;100746.69;2085525;28;2177;-61
2024/01/23 03:13:54;;;;;;;;;;;;;;;19.39;41.05;100748.81;2082819;28;2255;-61
2024/01/23 03:14:56;;;;;;;;;;;;;;;19.39;40.99;100743.81;2082525;28;2166;-60
2024/01/23 03:15:57;;;;;;;;;;;;;;;19.40;41.12;100744.53;2083582;28;2209;-61
2024/01/23 03:17:03;;;;;;;;;;;;;;;19.39;41.09;100755.28;2083919;28;2069;-61
2024/01/23 03:18:04;;;;;;;;;;;;;;;19.39;41.07;100751.69;2084345;28;2145;-61
2024/01/23 03:19:06;;;;;;;;;;;;;;;19.40;41.03;100756.03;2083648;28;2184;-61
2024/01/23 03:20:08;;;;;;;;;;;;;;;19.40;41.07;100747.41;2081825;28;2286;-61
2024/01/23 03:21:09;;;;;;;;;;;;;;;19.39;41.10;100755.28;2083806;28;2105;-61
2024/01/23 03:22:11;;;;;;;;;;;;;;;19.39;41.06;100752.41;2084119;28;2144;-61
2024/01/23 03:23:13;;;;;;;;;;;;;;;19.39;41.09;100758.16;2083197;28;2182;-61
2024/01/23 03:24:14;;;;;;;;;;;;;;;19.39;41.13;100757.44;2083674;28;2216;-61
2024/01/23 03:25:16;;;;;;;;;;;;;;;19.39;41.10;100752.41;2085310;28;2090;-61
2024/01/23 03:26:18;;;;;;;;;;;;;;;19.39;41.14;100757.44;2083152;28;2081;-61
2024/01/23 03:27:19;;;;;;;;;;;;;;;19.38;41.25;100761.69;2082718;28;2195;-61
2024/01/23 03:28:23;;;;;;;;;;;;;;;19.39;41.09;100766.03;2084228;28;2186;-61
2024/01/23 03:29:25;;;;;;;;;;;;;;;19.39;41.22;100766.03;2086231;28;2159;-61
2024/01/23 03:30:27;;;;;;;;;;;;;;;19.39;41.02;100769.66;2080255;28;6077;-61
2024/01/23 03:31:28;;;;;;;;;;;;;;;19.37;41.14;100768.81;2082860;28;1698;-61
2024/01/23 03:32:30;;;;;;;;;;;;;;;19.37;41.15;100775.28;2082605;28;1816;-61
2024/01/23 03:33:32;;;;;;;;;;;;;;;19.38;41.11;100778.94;2083103;28;2035;-61
2024/01/23 03:34:33;;;;;;;;;;;;;;;19.37;41.13;100781.03;2083347;28;2109;-61
2024/01/23 03:35:35;;;;;;;;;;;;;;;19.37;41.13;100765.94;2083358;28;2631;-61
2024/01/23 03:36:36;;;;;;;;;;;;;;;19.37;41.21;100766.69;2082768;28;2113;-61
2024/01/23 03:37:38;;;;;;;;;;;;;;;19.36;41.17;100764.47;2085342;28;2160;-61
2024/01/23 03:38:39;;;;;;;;;;;;;;;19.37;41.17;100775.28;2082686;28;1916;-61
2024/01/23 03:39:40;;;;;;;;;;;;;;;19.37;41.26;100771.69;2085391;28;2117;-61
2024/01/23 03:40:42;;;;;;;;;;;;;;;19.37;41.27;100765.94;2085109;28;1936;-61
2024/01/23 03:41:43;;;;;;;;;;;;;;;19.36;41.14;100776.69;2083939;28;1904;-61
2024/01/23 03:42:45;;;;;;;;;;;;;;;19.36;41.23;100782.44;2089374;28;1714;-61
2024/01/23 03:43:46;;;;;;;;;;;;;;;19.38;41.27;100785.41;2085063;28;2264;-61
2024/01/23 03:44:47;;;;;;;;;;;;;;;19.39;41.28;100780.41;2081825;28;2227;-61
2024/01/23 03:45:49;;;;;;;;;;;;;;;19.39;41.24;100778.25;2086981;28;2146;-61
2024/01/23 03:46:50;;;;;;;;;;;;;;;19.41;41.21;100786.25;2083467;28;2101;-61
2024/01/23 03:47:52;;;;;;;;;;;;;;;19.42;41.17;100779.09;2082586;28;2122;-61
2024/01/23 03:48:53;;;;;;;;;;;;;;;19.43;41.16;100786.34;2087616;28;1927;-61
2024/01/23 03:49:55;;;;;;;;;;;;;;;19.43;41.17;100798.56;2081405;28;2024;-61
2024/01/23 03:50:56;;;;;;;;;;;;;;;19.44;41.12;100794.31;2084920;28;2109;-61
2024/01/23 03:51:58;;;;;;;;;;;;;;;19.45;41.22;100795.81;2083904;28;2149;-61
2024/01/23 03:52:59;;;;;;;;;;;;;;;19.47;41.32;100792.28;2086727;28;2305;-61
2024/01/23 03:54:01;;;;;;;;;;;;;;;19.46;41.43;100790.78;2085619;28;2353;-61
2024/01/23 03:55:05;;;;;;;;;;;;;;;19.48;41.46;100793.03;2085854;28;2196;-61
2024/01/23 03:56:07;;;;;;;;;;;;;;;19.47;41.38;100792.28;2084012;28;2182;-61
2024/01/23 03:57:08;;;;;;;;;;;;;;;19.47;41.38;100803.78;2082665;28;2268;-61
2024/01/23 03:58:09;;;;;;;;;;;;;;;19.48;41.36;100801.66;2087883;28;1895;-61
2024/01/23 03:59:11;;;;;;;;;;;;;;;19.48;41.34;100804.53;2084967;28;2143;-61
2024/01/23 04:00:12;;;;;;;;;;;;;;;19.47;41.36;100800.91;2084479;28;6661;-61
2024/01/23 04:01:14;;;;;;;;;;;;;;;19.47;41.34;100809.53;2084073;28;2118;-61
2024/01/23 04:02:15;;;;;;;;;;;;;;;19.48;41.28;100808.13;2084449;28;2129;-61
2024/01/23 04:03:17;;;;;;;;;;;;;;;19.49;41.36;100806.00;2086741;28;2117;-61
2024/01/23 04:04:20;;;;;;;;;;;;;;;19.47;41.31;100803.78;2083904;28;2178;-61
2024/01/23 04:05:21;;;;;;;;;;;;;;;19.48;41.32;100805.25;2085653;28;2074;-61
2024/01/23 04:06:23;;;;;;;;;;;;;;;19.47;41.43;100803.78;2085388;28;2069;-61
2024/01/23 04:07:24;;;;;;;;;;;;;;;19.47;41.45;100800.91;2085906;28;2178;-60
2024/01/23 04:08:25;;;;;;;;;;;;;;;19.47;41.35;100800.91;2084077;28;2295;-61
2024/01/23 04:09:27;;;;;;;;;;;;;;;19.47;41.25;100806.66;2084932;28;2138;-61
2024/01/23 04:10:28;;;;;;;;;;;;;;;19.48;41.27;100798.78;2082854;28;2077;-61
2024/01/23 04:11:30;;;;;;;;;;;;;;;19.48;41.47;100811.00;2084731;28;2146;-61
2024/01/23 04:12:31;;;;;;;;;;;;;;;19.48;41.41;100811.00;2084022;28;2158;-61
2024/01/23 04:13:33;;;;;;;;;;;;;;;19.49;41.34;100806.00;2084518;28;2114;-61
2024/01/23 04:14:34;;;;;;;;;;;;;;;19.49;41.31;100812.47;2085084;28;2189;-61
2024/01/23 04:15:36;;;;;;;;;;;;;;;19.48;41.56;100811.00;2080523;28;2381;-61
2024/01/23 04:16:37;;;;;;;;;;;;;;;19.48;41.50;100819.63;2083448;28;2188;-61
2024/01/23 04:17:39;;;;;;;;;;;;;;;19.48;41.44;100819.63;2085754;28;1813;-61
2024/01/23 04:18:41;;;;;;;;;;;;;;;19.50;41.34;100824.72;2084699;28;1826;-61
2024/01/23 04:19:42;;;;;;;;;;;;;;;19.49;41.34;100823.97;2085288;28;1944;-61
2024/01/23 04:20:44;;;;;;;;;;;;;;;19.50;41.47;100825.47;2086445;28;2143;-61
2024/01/23 04:21:46;;;;;;;;;;;;;;;19.49;41.47;100829.69;2088044;28;2384;-61
2024/01/23 04:22:47;;;;;;;;;;;;;;;19.50;41.48;100836.22;2087329;28;2423;-61
2024/01/23 04:23:49;;;;;;;;;;;;;;;19.51;41.42;100837.69;2082860;28;2267;-61
2024/01/23 04:24:50;;;;;;;;;;;;;;;19.53;41.29;100840.66;2084606;28;2150;-61
2024/01/23 04:25:52;;;;;;;;;;;;;;;19.52;41.36;100842.78;2085113;28;2089;-61
2024/01/23 04:26:53;;;;;;;;;;;;;;;19.53;41.36;100847.16;2085607;28;2122;-61
2024/01/23 04:27:55;;;;;;;;;;;;;;;19.55;41.45;100855.13;2083783;28;2229;-65
2024/01/23 04:28:56;;;;;;;;;;;;;;;19.54;41.52;100847.88;2083570;28;2146;-61
2024/01/23 04:29:58;;;;;;;;;;;;;;;19.54;41.50;100850.75;2084291;28;2400;-62
2024/01/23 04:30:59;;;;;;;;;;;;;;;19.54;41.50;100860.13;2083793;28;6137;-73
2024/01/23 04:32:01;;;;;;;;;;;;;;;19.54;41.41;100863.00;2085218;28;2129;-72
2024/01/23 04:33:02;;;;;;;;;;;;;;;19.54;41.45;100871.63;2084677;28;2130;-72
2024/01/23 04:34:04;;;;;;;;;;;;;;;19.52;41.32;100871.53;2084032;28;2114;-73
2024/01/23 04:35:05;;;;;;;;;;;;;;;19.52;41.42;100874.38;2084710;28;2093;-73
2024/01/23 04:36:07;;;;;;;;;;;;;;;19.52;41.40;100880.13;2083913;28;2299;-73
2024/01/23 04:37:08;;;;;;;;;;;;;;;19.53;41.41;100881.59;2081573;28;2096;-73
2024/01/23 04:38:10;;;;;;;;;;;;;;;19.52;41.39;100885.88;2084036;28;2176;-73
2024/01/23 04:39:11;;;;;;;;;;;;;;;19.53;41.36;100893.09;2084386;28;2202;-73
2024/01/23 04:40:12;;;;;;;;;;;;;;;19.53;41.54;100887.34;2085175;28;2255;-73
2024/01/23 04:41:14;;;;;;;;;;;;;;;19.53;41.52;100884.47;2085587;28;2137;-72
2024/01/23 04:42:16;;;;;;;;;;;;;;;19.55;41.48;100886.72;2084970;28;2109;-73
2024/01/23 04:43:18;;;;;;;;;;;;;;;19.55;41.44;100883.84;2083339;28;2055;-73
2024/01/23 04:44:20;;;;;;;;;;;;;;;19.55;41.48;100890.34;2083313;28;2190;-73
2024/01/23 04:45:22;;;;;;;;;;;;;;;19.56;41.43;100891.84;2084629;28;2073;-73
2024/01/23 04:46:23;;;;;;;;;;;;;;;19.56;41.46;100905.44;2084524;28;2153;-73
2024/01/23 04:47:25;;;;;;;;;;;;;;;19.56;41.47;100911.94;2086496;28;2117;-73
2024/01/23 04:48:26;;;;;;;;;;;;;;;19.58;41.40;100905.53;2081574;28;2193;-73
2024/01/23 04:49:29;;;;;;;;;;;;;;;19.58;41.42;100900.53;2083979;28;2275;-73
2024/01/23 04:50:31;;;;;;;;;;;;;;;19.56;41.38;100903.31;2085447;28;2171;-73
2024/01/23 04:51:32;;;;;;;;;;;;;;;19.58;41.44;100900.53;2084643;28;2166;-73
2024/01/23 04:52:34;;;;;;;;;;;;;;;19.58;41.45;100906.28;2085392;28;2173;-73
2024/01/23 04:53:35;;;;;;;;;;;;;;;19.58;41.65;100894.78;2081144;28;1760;-73
2024/01/23 04:54:37;;;;;;;;;;;;;;;19.57;41.48;100899.06;2085835;28;1833;-72
2024/01/23 04:55:38;;;;;;;;;;;;;;;19.58;41.52;100891.91;2085011;28;2040;-73
2024/01/23 04:56:40;;;;;;;;;;;;;;;19.59;41.48;100895.56;2085222;28;2338;-72
2024/01/23 04:57:41;;;;;;;;;;;;;;;19.59;41.55;100893.41;2084479;28;2560;-72
2024/01/23 04:58:43;;;;;;;;;;;;;;;19.57;41.45;100893.31;2084539;28;2057;-72
2024/01/23 04:59:44;;;;;;;;;;;;;;;19.57;41.45;100899.06;2084513;28;2172;-73
2024/01/23 05:00:45;;;;;;;;;;;;;;;19.58;41.57;100908.41;2083694;28;6263;-72
2024/01/23 05:01:48;;;;;;;;;;;;;;;19.57;41.55;100910.53;2084149;28;2183;-73
2024/01/23 05:02:50;;;;;;;;;;;;;;;19.56;41.48;100914.81;2085059;28;2187;-73
2024/01/23 05:03:51;;;;;;;;;;;;;;;19.56;41.55;100914.81;2084440;28;2098;-73
2024/01/23 05:04:53;;;;;;;;;;;;;;;19.57;41.63;100924.16;2082796;28;2175;-73
2024/01/23 05:05:54;;;;;;;;;;;;;;;19.55;41.63;100919.06;2080965;28;2097;-73
2024/01/23 05:06:56;;;;;;;;;;;;;;;19.56;41.55;100925.53;2081467;28;2112;-73
2024/01/23 05:07:58;;;;;;;;;;;;;;;19.57;41.46;100933.53;2083433;28;2166;-73
2024/01/23 05:08:59;;;;;;;;;;;;;;;19.58;41.52;100929.25;2083381;28;2113;-73
2024/01/23 05:10:02;;;;;;;;;;;;;;;19.58;41.60;100940.75;2086022;28;2156;-73
2024/01/23 05:11:04;;;;;;;;;;;;;;;19.58;41.53;100935.00;2083939;28;2036;-73
2024/01/23 05:12:06;;;;;;;;;;;;;;;19.57;41.43;100927.78;2085472;28;2133;-72
2024/01/23 05:13:07;;;;;;;;;;;;;;;19.58;41.51;100923.50;2086461;28;2114;-73
2024/01/23 05:14:08;;;;;;;;;;;;;;;19.57;41.51;100922.03;2084109;28;2392;-73
2024/01/23 05:15:10;;;;;;;;;;;;;;;19.57;41.57;100922.03;2083960;28;2173;-72
2024/01/23 05:16:11;;;;;;;;;;;;;;;19.58;41.48;100934.25;2087597;28;1885;-71
2024/01/23 05:17:13;;;;;;;;;;;;;;;19.57;41.57;100933.53;2084172;28;2074;-72
2024/01/23 05:18:14;;;;;;;;;;;;;;;19.58;41.46;100943.63;2085147;28;2677;-73
2024/01/23 05:19:16;;;;;;;;;;;;;;;19.57;41.71;100942.13;2084078;28;2400;-73
2024/01/23 05:20:17;;;;;;;;;;;;;;;19.56;41.70;100940.66;2084505;28;2093;-72
2024/01/23 05:21:19;;;;;;;;;;;;;;;19.57;41.64;100933.53;2084006;28;2489;-73